Route Details

Aircraft Information
Group: North America Fleet
Types: B738, B752, B762, B763
Route Data
Distance: 242nm
Duration: 1h 19m
Origin METAR: KRFD 072354Z 25005KT 10SM CLR 02/M03 A3015 RMK AO2 SLP216 T00221033 10050 20022 53020
Dest. METAR: KMSP 072353Z 23005KT 10SM FEW250 00/M06 A3011 RMK AO2 SLP205 4/009 T00001056 10017 20000 51014
Freight Data
(for Feb 8, 2023)
Load Factor:
83%
Manifested Cargo: 64,158lbs
Financial History
Total Freight: 705,577lbs
Average Load: 0lbs/flt
Fuel Used: 121,627lbs
Avg. Fuel Used: 0lbs/flt
Fuel Expense: $77,759
Avg. Fuel Expense: $0
Avg. Fuel Cost: $0/lbs
Total Gross Income: $1,155,614
Pilot Pay: $3,352
Total Expenses: $179,575
Total Revenue: $894,313
Average Revenue: $0

Capitol Logistics 418




KRFD
Chicago/Rockford International Airport
Rockford, Illinois
KMSP
Minneapolis-St Paul International Airport
Minneapolis, Minnesota

Activity Log

Date Flight Route Aircraft Duration
01/23/2023 CPX418 DCT RFD DCT COTON J30 ODI DCT CMAAC KKILR3 B738 1h 01m
11/26/2022 CPX418 DCT RFD DCT DBQ DCT MNOSO BLUEM4 B762 1h 20m
11/12/2022 CPX418 DCT RFD DCT COTON J30 ODI DCT CMAAC KKILR3 B763 1h 02m
07/19/2022 CPX418 RFD DBQ MNOSO BLUEM4 B752 1h 03m
04/18/2021 CPX410 RFD DBQ MNOSO BLUEM3 B752 1h 05m
04/11/2021 CPX410 RFD DBQ MNOSO BLUEM3 B738 0h 53m
08/31/2020 CPX410 RFD DBQ MNOSO BLUEM3 B738 1h 09m
01/15/2020 CPX410 RFD DBQ MNOSO BLUEM3 B738 1h 20m
11/29/2019 CPX410 RFD DBQ MNOSO BLUEM3 B738 1h 13m
11/18/2019 CPX410 N0319A110 RFD V128 JVL/N0452F380 DLL EAU EAU9 B738 1h 09m
11/14/2019 CPX410 N0306A110 RFD V128 JVL/N0448F400 DLL EAU EAU9 B738 1h 07m
11/11/2019 CPX410 N0343A110 RFD V128 JVL/N0455F360 DLL EAU EAU9 B738 1h 09m
10/28/2019 CPX410 RFD DBQ MNOSO BLUEM3 B738 1h 03m
08/02/2019 CPX410 KRFD RFD DBQ MNOSO BLUEM3 KMSP B738 1h 26m
07/19/2019 CPX410 RFD DBQ MNOSO BLUEM3 B738 1h 08m
06/25/2019 CPX410 RFD DBQ MNOSO BLUEM3 B738 1h 12m
03/09/2019 CPX410 RFD DBQ MNOSO BLUEM3 B752 0h 50m
02/20/2019 CPX410 RFD DBQ MNOSO BLUEM3 B752 1h 14m